sensor_id;sensor_type;location;lat;lon;timestamp;temperature;humidity
1766;DHT22;880;52.452;8.656;2024-01-27T00:00:28;5.00;99.90
1766;DHT22;880;52.452;8.656;2024-01-27T00:02:56;5.00;99.90
1766;DHT22;880;52.452;8.656;2024-01-27T00:05:23;5.00;99.90
1766;DHT22;880;52.452;8.656;2024-01-27T00:07:52;4.90;99.90
1766;DHT22;880;52.452;8.656;2024-01-27T00:10:19;4.90;99.90
1766;DHT22;880;52.452;8.656;2024-01-27T00:12:47;4.90;99.90
1766;DHT22;880;52.452;8.656;2024-01-27T00:15:14;4.90;99.90
1766;DHT22;880;52.452;8.656;2024-01-27T00:17:41;4.90;99.90
1766;DHT22;880;52.452;8.656;2024-01-27T00:20:08;4.90;99.90
1766;DHT22;880;52.452;8.656;2024-01-27T00:22:35;4.90;99.90
1766;DHT22;880;52.452;8.656;2024-01-27T00:25:05;4.90;99.90
1766;DHT22;880;52.452;8.656;2024-01-27T00:27:32;4.80;99.90
1766;DHT22;880;52.452;8.656;2024-01-27T00:30:00;4.80;99.90
1766;DHT22;880;52.452;8.656;2024-01-27T00:32:27;4.80;99.90
1766;DHT22;880;52.452;8.656;2024-01-27T00:34:54;4.80;99.90
1766;DHT22;880;52.452;8.656;2024-01-27T00:37:21;4.80;99.90
1766;DHT22;880;52.452;8.656;2024-01-27T00:39:48;4.80;99.90
1766;DHT22;880;52.452;8.656;2024-01-27T00:42:15;4.70;99.90
1766;DHT22;880;52.452;8.656;2024-01-27T00:44:42;4.70;99.90
1766;DHT22;880;52.452;8.656;2024-01-27T00:47:10;4.70;99.90
1766;DHT22;880;52.452;8.656;2024-01-27T00:49:37;4.80;99.90
1766;DHT22;880;52.452;8.656;2024-01-27T00:52:05;4.80;99.90
1766;DHT22;880;52.452;8.656;2024-01-27T00:54:32;4.80;99.90
1766;DHT22;880;52.452;8.656;2024-01-27T00:56:59;4.70;99.90
1766;DHT22;880;52.452;8.656;2024-01-27T00:59:26;4.70;99.90
1766;DHT22;880;52.452;8.656;2024-01-27T01:01:53;4.70;99.90
1766;DHT22;880;52.452;8.656;2024-01-27T01:04:20;4.70;99.90
1766;DHT22;880;52.452;8.656;2024-01-27T01:06:47;4.70;99.90
1766;DHT22;880;52.452;8.656;2024-01-27T01:09:14;4.70;99.90
1766;DHT22;880;52.452;8.656;2024-01-27T01:11:41;4.60;99.90
1766;DHT22;880;52.452;8.656;2024-01-27T01:14:08;4.70;99.90
1766;DHT22;880;52.452;8.656;2024-01-27T01:16:35;4.70;99.90
1766;DHT22;880;52.452;8.656;2024-01-27T01:19:02;4.60;99.90
1766;DHT22;880;52.452;8.656;2024-01-27T01:21:29;4.60;99.90
1766;DHT22;880;52.452;8.656;2024-01-27T01:23:56;4.60;99.90
1766;DHT22;880;52.452;8.656;2024-01-27T01:26:24;4.60;99.90
1766;DHT22;880;52.452;8.656;2024-01-27T01:28:51;4.70;99.90
1766;DHT22;880;52.452;8.656;2024-01-27T01:31:18;4.60;99.90
1766;DHT22;880;52.452;8.656;2024-01-27T01:33:46;4.60;99.90
1766;DHT22;880;52.452;8.656;2024-01-27T01:36:13;4.60;99.90
1766;DHT22;880;52.452;8.656;2024-01-27T01:38:40;4.70;99.90
1766;DHT22;880;52.452;8.656;2024-01-27T01:41:07;4.60;99.90
1766;DHT22;880;52.452;8.656;2024-01-27T01:43:34;4.60;99.90
1766;DHT22;880;52.452;8.656;2024-01-27T01:46:02;4.60;99.90
1766;DHT22;880;52.452;8.656;2024-01-27T01:48:29;4.60;99.90
1766;DHT22;880;52.452;8.656;2024-01-27T01:50:58;4.60;99.90
1766;DHT22;880;52.452;8.656;2024-01-27T01:53:26;4.60;99.90
1766;DHT22;880;52.452;8.656;2024-01-27T01:55:55;4.60;99.90
1766;DHT22;880;52.452;8.656;2024-01-27T01:58:22;4.50;99.90
1766;DHT22;880;52.452;8.656;2024-01-27T02:00:49;4.50;99.90
1766;DHT22;880;52.452;8.656;2024-01-27T02:03:16;4.50;99.90
1766;DHT22;880;52.452;8.656;2024-01-27T02:05:43;4.40;99.90
1766;DHT22;880;52.452;8.656;2024-01-27T02:08:11;4.40;99.90
1766;DHT22;880;52.452;8.656;2024-01-27T02:10:38;4.40;99.90
1766;DHT22;880;52.452;8.656;2024-01-27T02:13:21;4.40;99.90
1766;DHT22;880;52.452;8.656;2024-01-27T02:15:50;4.40;99.90
1766;DHT22;880;52.452;8.656;2024-01-27T02:18:19;4.40;99.90
1766;DHT22;880;52.452;8.656;2024-01-27T02:20:47;4.40;99.90
1766;DHT22;880;52.452;8.656;2024-01-27T02:23:17;4.40;99.90
1766;DHT22;880;52.452;8.656;2024-01-27T02:25:44;4.40;99.90
1766;DHT22;880;52.452;8.656;2024-01-27T02:28:11;4.40;99.90
1766;DHT22;880;52.452;8.656;2024-01-27T02:30:39;4.40;99.90
1766;DHT22;880;52.452;8.656;2024-01-27T02:33:06;4.40;99.90
1766;DHT22;880;52.452;8.656;2024-01-27T02:35:34;4.40;99.90
1766;DHT22;880;52.452;8.656;2024-01-27T02:38:02;4.40;99.90
1766;DHT22;880;52.452;8.656;2024-01-27T02:40:29;4.40;99.90
1766;DHT22;880;52.452;8.656;2024-01-27T02:42:55;4.40;99.90
1766;DHT22;880;52.452;8.656;2024-01-27T02:45:23;4.40;99.90
1766;DHT22;880;52.452;8.656;2024-01-27T02:47:50;4.40;99.90
1766;DHT22;880;52.452;8.656;2024-01-27T02:50:18;4.30;99.90
1766;DHT22;880;52.452;8.656;2024-01-27T02:52:45;4.30;99.90
1766;DHT22;880;52.452;8.656;2024-01-27T02:55:12;4.30;99.90
1766;DHT22;880;52.452;8.656;2024-01-27T02:57:40;4.40;99.90
1766;DHT22;880;52.452;8.656;2024-01-27T03:00:08;4.40;99.90
1766;DHT22;880;52.452;8.656;2024-01-27T03:02:35;4.30;99.90
1766;DHT22;880;52.452;8.656;2024-01-27T03:05:03;4.40;99.90
1766;DHT22;880;52.452;8.656;2024-01-27T03:07:30;4.40;99.90
1766;DHT22;880;52.452;8.656;2024-01-27T03:09:57;4.40;99.90
1766;DHT22;880;52.452;8.656;2024-01-27T03:12:24;4.30;99.90
1766;DHT22;880;52.452;8.656;2024-01-27T03:14:51;4.30;99.90
1766;DHT22;880;52.452;8.656;2024-01-27T03:17:18;4.30;99.90
1766;DHT22;880;52.452;8.656;2024-01-27T03:19:46;4.20;99.90
1766;DHT22;880;52.452;8.656;2024-01-27T03:22:15;4.30;99.90
1766;DHT22;880;52.452;8.656;2024-01-27T03:24:42;4.20;99.90
1766;DHT22;880;52.452;8.656;2024-01-27T03:27:09;4.20;99.90
1766;DHT22;880;52.452;8.656;2024-01-27T03:29:37;4.20;99.90
1766;DHT22;880;52.452;8.656;2024-01-27T03:32:04;4.20;99.90
1766;DHT22;880;52.452;8.656;2024-01-27T03:34:32;4.20;99.90
1766;DHT22;880;52.452;8.656;2024-01-27T03:36:59;4.20;99.90
1766;DHT22;880;52.452;8.656;2024-01-27T03:39:26;4.30;99.90
1766;DHT22;880;52.452;8.656;2024-01-27T03:41:53;4.30;99.90
1766;DHT22;880;52.452;8.656;2024-01-27T03:44:20;4.20;99.90
1766;DHT22;880;52.452;8.656;2024-01-27T03:46:47;4.20;99.90
1766;DHT22;880;52.452;8.656;2024-01-27T03:49:18;4.20;99.90
1766;DHT22;880;52.452;8.656;2024-01-27T03:51:45;4.20;99.90
1766;DHT22;880;52.452;8.656;2024-01-27T03:54:12;4.30;99.90
1766;DHT22;880;52.452;8.656;2024-01-27T03:56:41;4.20;99.90
1766;DHT22;880;52.452;8.656;2024-01-27T03:59:08;4.10;99.90
1766;DHT22;880;52.452;8.656;2024-01-27T04:01:37;4.10;99.90
1766;DHT22;880;52.452;8.656;2024-01-27T04:04:04;4.10;99.90
1766;DHT22;880;52.452;8.656;2024-01-27T04:06:41;4.10;99.90
1766;DHT22;880;52.452;8.656;2024-01-27T04:09:08;4.20;99.90
1766;DHT22;880;52.452;8.656;2024-01-27T04:11:36;4.10;99.90
1766;DHT22;880;52.452;8.656;2024-01-27T04:14:04;4.10;99.90
1766;DHT22;880;52.452;8.656;2024-01-27T04:16:32;4.20;99.90
1766;DHT22;880;52.452;8.656;2024-01-27T04:18:59;4.20;99.90
1766;DHT22;880;52.452;8.656;2024-01-27T04:21:27;4.10;99.90
1766;DHT22;880;52.452;8.656;2024-01-27T04:23:55;4.10;99.90
1766;DHT22;880;52.452;8.656;2024-01-27T04:26:22;4.10;99.90
1766;DHT22;880;52.452;8.656;2024-01-27T04:28:49;4.10;99.90
1766;DHT22;880;52.452;8.656;2024-01-27T04:31:16;4.10;99.90
1766;DHT22;880;52.452;8.656;2024-01-27T04:33:43;4.10;99.90
1766;DHT22;880;52.452;8.656;2024-01-27T04:36:10;4.10;99.90
1766;DHT22;880;52.452;8.656;2024-01-27T04:38:37;4.10;99.90
1766;DHT22;880;52.452;8.656;2024-01-27T04:41:04;4.10;99.90
1766;DHT22;880;52.452;8.656;2024-01-27T04:43:32;4.10;99.90
1766;DHT22;880;52.452;8.656;2024-01-27T04:45:59;4.10;99.90
1766;DHT22;880;52.452;8.656;2024-01-27T04:48:27;4.10;99.90
1766;DHT22;880;52.452;8.656;2024-01-27T04:50:54;4.10;99.90
1766;DHT22;880;52.452;8.656;2024-01-27T04:53:23;4.10;99.90
1766;DHT22;880;52.452;8.656;2024-01-27T04:55:50;4.00;99.90
1766;DHT22;880;52.452;8.656;2024-01-27T04:58:17;4.00;99.90
1766;DHT22;880;52.452;8.656;2024-01-27T05:00:44;4.00;99.90
1766;DHT22;880;52.452;8.656;2024-01-27T05:03:12;4.00;99.90
1766;DHT22;880;52.452;8.656;2024-01-27T05:05:42;3.90;99.90
1766;DHT22;880;52.452;8.656;2024-01-27T05:08:09;3.90;99.90
1766;DHT22;880;52.452;8.656;2024-01-27T05:10:37;3.90;99.90
1766;DHT22;880;52.452;8.656;2024-01-27T05:13:04;3.90;99.90
1766;DHT22;880;52.452;8.656;2024-01-27T05:15:31;3.90;99.90
1766;DHT22;880;52.452;8.656;2024-01-27T05:17:58;3.80;99.90
1766;DHT22;880;52.452;8.656;2024-01-27T05:20:25;3.90;99.90
1766;DHT22;880;52.452;8.656;2024-01-27T05:22:52;3.80;99.90
1766;DHT22;880;52.452;8.656;2024-01-27T05:25:19;3.80;99.90
1766;DHT22;880;52.452;8.656;2024-01-27T05:27:46;3.80;99.90
1766;DHT22;880;52.452;8.656;2024-01-27T05:30:13;3.80;99.90
1766;DHT22;880;52.452;8.656;2024-01-27T05:35:58;3.80;99.90
1766;DHT22;880;52.452;8.656;2024-01-27T05:38:25;3.80;99.90
1766;DHT22;880;52.452;8.656;2024-01-27T05:40:52;3.80;99.90
1766;DHT22;880;52.452;8.656;2024-01-27T05:43:19;3.80;99.90
1766;DHT22;880;52.452;8.656;2024-01-27T05:45:46;3.80;99.90
1766;DHT22;880;52.452;8.656;2024-01-27T05:48:13;3.80;99.90
1766;DHT22;880;52.452;8.656;2024-01-27T05:50:42;3.80;99.90
1766;DHT22;880;52.452;8.656;2024-01-27T05:53:19;3.70;99.90
1766;DHT22;880;52.452;8.656;2024-01-27T05:55:47;3.60;99.90
1766;DHT22;880;52.452;8.656;2024-01-27T05:58:14;3.60;99.90
1766;DHT22;880;52.452;8.656;2024-01-27T06:00:42;3.50;99.90
1766;DHT22;880;52.452;8.656;2024-01-27T06:03:10;3.40;99.90
1766;DHT22;880;52.452;8.656;2024-01-27T06:05:38;3.40;99.90
1766;DHT22;880;52.452;8.656;2024-01-27T06:08:06;3.30;99.90
1766;DHT22;880;52.452;8.656;2024-01-27T06:10:34;3.30;99.90
1766;DHT22;880;52.452;8.656;2024-01-27T06:13:03;3.30;99.90
1766;DHT22;880;52.452;8.656;2024-01-27T06:15:31;3.30;99.90
1766;DHT22;880;52.452;8.656;2024-01-27T06:17:58;3.30;99.90
1766;DHT22;880;52.452;8.656;2024-01-27T06:20:25;3.30;99.90
1766;DHT22;880;52.452;8.656;2024-01-27T06:22:52;3.30;99.90
1766;DHT22;880;52.452;8.656;2024-01-27T06:25:24;3.30;99.90
1766;DHT22;880;52.452;8.656;2024-01-27T06:27:51;3.30;99.90
1766;DHT22;880;52.452;8.656;2024-01-27T06:30:18;3.40;99.90
1766;DHT22;880;52.452;8.656;2024-01-27T06:32:46;3.40;99.90
1766;DHT22;880;52.452;8.656;2024-01-27T06:35:14;3.40;99.90
1766;DHT22;880;52.452;8.656;2024-01-27T06:37:41;3.40;99.90
1766;DHT22;880;52.452;8.656;2024-01-27T06:40:08;3.40;99.90
1766;DHT22;880;52.452;8.656;2024-01-27T06:42:36;3.40;99.90
1766;DHT22;880;52.452;8.656;2024-01-27T06:45:03;3.50;99.90
1766;DHT22;880;52.452;8.656;2024-01-27T06:47:31;3.50;99.90
1766;DHT22;880;52.452;8.656;2024-01-27T06:49:58;3.50;99.90
1766;DHT22;880;52.452;8.656;2024-01-27T06:52:25;3.50;99.90
1766;DHT22;880;52.452;8.656;2024-01-27T06:54:52;3.50;99.90
1766;DHT22;880;52.452;8.656;2024-01-27T06:57:19;3.50;99.90
1766;DHT22;880;52.452;8.656;2024-01-27T06:59:48;3.50;99.90
1766;DHT22;880;52.452;8.656;2024-01-27T07:02:23;3.40;99.90
1766;DHT22;880;52.452;8.656;2024-01-27T07:04:50;3.40;99.90
1766;DHT22;880;52.452;8.656;2024-01-27T07:07:25;3.40;99.90
1766;DHT22;880;52.452;8.656;2024-01-27T07:09:55;3.40;99.90
1766;DHT22;880;52.452;8.656;2024-01-27T07:12:22;3.40;99.90
1766;DHT22;880;52.452;8.656;2024-01-27T07:14:50;3.40;99.90
1766;DHT22;880;52.452;8.656;2024-01-27T07:17:22;3.40;99.90
1766;DHT22;880;52.452;8.656;2024-01-27T07:19:49;3.40;99.90
1766;DHT22;880;52.452;8.656;2024-01-27T07:22:16;3.30;99.90
1766;DHT22;880;52.452;8.656;2024-01-27T07:24:43;3.30;99.90
1766;DHT22;880;52.452;8.656;2024-01-27T07:27:12;3.30;99.90
1766;DHT22;880;52.452;8.656;2024-01-27T07:29:40;3.20;99.90
1766;DHT22;880;52.452;8.656;2024-01-27T07:32:07;3.20;99.90
1766;DHT22;880;52.452;8.656;2024-01-27T07:34:43;3.20;99.90
1766;DHT22;880;52.452;8.656;2024-01-27T07:37:11;3.20;99.90
1766;DHT22;880;52.452;8.656;2024-01-27T07:39:38;3.20;99.90
1766;DHT22;880;52.452;8.656;2024-01-27T07:42:08;3.20;99.90
1766;DHT22;880;52.452;8.656;2024-01-27T07:44:36;3.20;99.90
1766;DHT22;880;52.452;8.656;2024-01-27T07:47:03;3.10;99.90
1766;DHT22;880;52.452;8.656;2024-01-27T07:49:30;3.10;99.90
1766;DHT22;880;52.452;8.656;2024-01-27T07:51:57;3.10;99.90
1766;DHT22;880;52.452;8.656;2024-01-27T07:54:24;3.10;99.90
1766;DHT22;880;52.452;8.656;2024-01-27T07:56:51;3.10;99.90
1766;DHT22;880;52.452;8.656;2024-01-27T07:59:19;3.10;99.90
1766;DHT22;880;52.452;8.656;2024-01-27T08:01:46;3.10;99.90
1766;DHT22;880;52.452;8.656;2024-01-27T08:04:13;3.10;99.90
1766;DHT22;880;52.452;8.656;2024-01-27T08:06:47;3.20;99.90
1766;DHT22;880;52.452;8.656;2024-01-27T08:09:16;3.20;99.90
1766;DHT22;880;52.452;8.656;2024-01-27T08:11:44;3.30;99.90
1766;DHT22;880;52.452;8.656;2024-01-27T08:14:11;3.40;99.90
1766;DHT22;880;52.452;8.656;2024-01-27T08:16:38;3.40;99.90
1766;DHT22;880;52.452;8.656;2024-01-27T08:19:05;3.50;99.90
1766;DHT22;880;52.452;8.656;2024-01-27T08:21:33;3.60;99.90
1766;DHT22;880;52.452;8.656;2024-01-27T08:24:00;3.60;99.90
1766;DHT22;880;52.452;8.656;2024-01-27T08:26:27;3.70;99.90
1766;DHT22;880;52.452;8.656;2024-01-27T08:28:54;3.70;99.90
1766;DHT22;880;52.452;8.656;2024-01-27T08:31:22;3.80;99.90
1766;DHT22;880;52.452;8.656;2024-01-27T08:33:50;3.90;99.90
1766;DHT22;880;52.452;8.656;2024-01-27T08:36:17;3.90;99.90
1766;DHT22;880;52.452;8.656;2024-01-27T08:38:44;3.90;99.90
1766;DHT22;880;52.452;8.656;2024-01-27T08:41:12;4.00;99.90
1766;DHT22;880;52.452;8.656;2024-01-27T08:43:39;4.10;99.90
1766;DHT22;880;52.452;8.656;2024-01-27T08:46:06;4.10;99.90
1766;DHT22;880;52.452;8.656;2024-01-27T08:48:38;4.20;99.90
1766;DHT22;880;52.452;8.656;2024-01-27T08:51:10;4.20;99.90
1766;DHT22;880;52.452;8.656;2024-01-27T08:53:37;4.30;99.90
1766;DHT22;880;52.452;8.656;2024-01-27T08:56:04;4.40;99.90
1766;DHT22;880;52.452;8.656;2024-01-27T08:58:32;4.50;99.90
1766;DHT22;880;52.452;8.656;2024-01-27T09:00:59;4.50;99.90
1766;DHT22;880;52.452;8.656;2024-01-27T09:03:32;4.60;99.90
1766;DHT22;880;52.452;8.656;2024-01-27T09:05:59;4.60;99.90
1766;DHT22;880;52.452;8.656;2024-01-27T09:08:27;4.60;99.90
1766;DHT22;880;52.452;8.656;2024-01-27T09:10:54;4.70;99.90
1766;DHT22;880;52.452;8.656;2024-01-27T09:13:21;4.90;99.90
1766;DHT22;880;52.452;8.656;2024-01-27T09:15:48;5.00;99.90
1766;DHT22;880;52.452;8.656;2024-01-27T09:18:15;5.10;99.90
1766;DHT22;880;52.452;8.656;2024-01-27T09:20:43;5.10;99.90
1766;DHT22;880;52.452;8.656;2024-01-27T09:23:10;5.10;99.90
1766;DHT22;880;52.452;8.656;2024-01-27T09:25:39;5.20;99.90
1766;DHT22;880;52.452;8.656;2024-01-27T09:28:07;5.30;99.90
1766;DHT22;880;52.452;8.656;2024-01-27T09:30:34;5.30;99.90
1766;DHT22;880;52.452;8.656;2024-01-27T09:33:05;5.40;99.90
1766;DHT22;880;52.452;8.656;2024-01-27T09:35:32;5.50;99.90
1766;DHT22;880;52.452;8.656;2024-01-27T09:37:59;5.50;99.90
1766;DHT22;880;52.452;8.656;2024-01-27T09:40:27;5.70;99.90
1766;DHT22;880;52.452;8.656;2024-01-27T09:42:59;5.80;99.90
1766;DHT22;880;52.452;8.656;2024-01-27T09:45:27;5.90;99.90
1766;DHT22;880;52.452;8.656;2024-01-27T09:47:56;6.00;99.90
1766;DHT22;880;52.452;8.656;2024-01-27T09:50:27;6.00;99.90
1766;DHT22;880;52.452;8.656;2024-01-27T09:52:54;6.00;99.90
1766;DHT22;880;52.452;8.656;2024-01-27T09:55:21;6.10;99.90
1766;DHT22;880;52.452;8.656;2024-01-27T09:57:49;6.30;99.90
1766;DHT22;880;52.452;8.656;2024-01-27T10:00:16;6.30;99.90
1766;DHT22;880;52.452;8.656;2024-01-27T10:02:45;6.40;99.90
1766;DHT22;880;52.452;8.656;2024-01-27T10:05:13;6.30;99.90
1766;DHT22;880;52.452;8.656;2024-01-27T10:07:42;6.40;99.90
1766;DHT22;880;52.452;8.656;2024-01-27T10:10:09;6.50;99.90
1766;DHT22;880;52.452;8.656;2024-01-27T10:12:41;6.70;99.90
1766;DHT22;880;52.452;8.656;2024-01-27T10:15:22;6.90;99.90
1766;DHT22;880;52.452;8.656;2024-01-27T10:17:49;6.90;99.90
1766;DHT22;880;52.452;8.656;2024-01-27T10:20:17;6.90;99.90
1766;DHT22;880;52.452;8.656;2024-01-27T10:22:46;6.80;99.90
1766;DHT22;880;52.452;8.656;2024-01-27T10:25:13;6.80;99.90
1766;DHT22;880;52.452;8.656;2024-01-27T10:27:41;6.90;99.90
1766;DHT22;880;52.452;8.656;2024-01-27T10:30:16;7.00;99.90
1766;DHT22;880;52.452;8.656;2024-01-27T10:32:55;7.10;99.90
1766;DHT22;880;52.452;8.656;2024-01-27T10:35:28;7.30;99.90
1766;DHT22;880;52.452;8.656;2024-01-27T10:37:56;7.40;99.90
1766;DHT22;880;52.452;8.656;2024-01-27T10:40:26;7.50;99.90
1766;DHT22;880;52.452;8.656;2024-01-27T10:43:07;7.60;99.90
1766;DHT22;880;52.452;8.656;2024-01-27T10:45:39;7.80;99.90
1766;DHT22;880;52.452;8.656;2024-01-27T10:48:08;7.80;99.90
1766;DHT22;880;52.452;8.656;2024-01-27T10:50:40;7.80;99.90
1766;DHT22;880;52.452;8.656;2024-01-27T10:53:37;8.00;99.90
1766;DHT22;880;52.452;8.656;2024-01-27T10:56:06;8.10;99.90
1766;DHT22;880;52.452;8.656;2024-01-27T10:58:36;8.20;99.90
1766;DHT22;880;52.452;8.656;2024-01-27T11:01:13;8.30;99.90
1766;DHT22;880;52.452;8.656;2024-01-27T11:03:41;8.40;99.90
1766;DHT22;880;52.452;8.656;2024-01-27T11:06:11;8.40;99.90
1766;DHT22;880;52.452;8.656;2024-01-27T11:08:39;8.30;99.90
1766;DHT22;880;52.452;8.656;2024-01-27T11:11:10;8.40;99.90
1766;DHT22;880;52.452;8.656;2024-01-27T11:13:39;8.40;99.90
1766;DHT22;880;52.452;8.656;2024-01-27T11:16:15;8.30;99.90
1766;DHT22;880;52.452;8.656;2024-01-27T11:18:44;8.40;99.90
1766;DHT22;880;52.452;8.656;2024-01-27T11:21:15;8.60;99.90
1766;DHT22;880;52.452;8.656;2024-01-27T11:23:43;8.80;99.90
1766;DHT22;880;52.452;8.656;2024-01-27T11:26:20;9.00;99.90
1766;DHT22;880;52.452;8.656;2024-01-27T11:28:49;8.90;99.90
1766;DHT22;880;52.452;8.656;2024-01-27T11:31:18;8.80;99.90
1766;DHT22;880;52.452;8.656;2024-01-27T11:33:50;8.80;99.90
1766;DHT22;880;52.452;8.656;2024-01-27T11:36:22;8.90;99.90
1766;DHT22;880;52.452;8.656;2024-01-27T11:38:52;8.90;99.90
1766;DHT22;880;52.452;8.656;2024-01-27T11:41:26;9.00;99.90
1766;DHT22;880;52.452;8.656;2024-01-27T11:43:58;9.10;99.90
1766;DHT22;880;52.452;8.656;2024-01-27T11:46:29;9.10;99.90
1766;DHT22;880;52.452;8.656;2024-01-27T11:48:56;9.20;99.90
1766;DHT22;880;52.452;8.656;2024-01-27T11:51:24;9.40;99.90
1766;DHT22;880;52.452;8.656;2024-01-27T11:53:52;9.50;99.90
1766;DHT22;880;52.452;8.656;2024-01-27T11:56:19;9.50;99.90
1766;DHT22;880;52.452;8.656;2024-01-27T11:58:49;9.40;99.90
1766;DHT22;880;52.452;8.656;2024-01-27T12:01:16;9.50;99.90
1766;DHT22;880;52.452;8.656;2024-01-27T12:03:44;9.40;99.90
1766;DHT22;880;52.452;8.656;2024-01-27T12:06:12;9.40;99.90
1766;DHT22;880;52.452;8.656;2024-01-27T12:08:42;9.40;99.90
1766;DHT22;880;52.452;8.656;2024-01-27T12:11:16;9.50;99.90
1766;DHT22;880;52.452;8.656;2024-01-27T12:13:50;9.50;99.90
1766;DHT22;880;52.452;8.656;2024-01-27T12:16:19;9.60;99.90
1766;DHT22;880;52.452;8.656;2024-01-27T12:18:52;9.70;99.90
1766;DHT22;880;52.452;8.656;2024-01-27T12:21:21;10.00;99.90
1766;DHT22;880;52.452;8.656;2024-01-27T12:23:53;10.10;99.90
1766;DHT22;880;52.452;8.656;2024-01-27T12:26:22;10.20;99.90
1766;DHT22;880;52.452;8.656;2024-01-27T12:28:50;10.10;99.90
1766;DHT22;880;52.452;8.656;2024-01-27T12:31:20;10.20;99.90
1766;DHT22;880;52.452;8.656;2024-01-27T12:33:50;10.30;99.90
1766;DHT22;880;52.452;8.656;2024-01-27T12:36:18;10.40;99.90
1766;DHT22;880;52.452;8.656;2024-01-27T12:39:15;10.60;99.90
1766;DHT22;880;52.452;8.656;2024-01-27T12:41:42;10.80;99.90
1766;DHT22;880;52.452;8.656;2024-01-27T12:44:09;10.90;99.90
1766;DHT22;880;52.452;8.656;2024-01-27T12:46:36;10.90;99.90
1766;DHT22;880;52.452;8.656;2024-01-27T12:49:04;10.90;99.90
1766;DHT22;880;52.452;8.656;2024-01-27T12:51:32;10.90;99.90
1766;DHT22;880;52.452;8.656;2024-01-27T12:53:59;10.90;99.90
1766;DHT22;880;52.452;8.656;2024-01-27T12:56:26;11.00;99.90
1766;DHT22;880;52.452;8.656;2024-01-27T12:58:53;11.20;99.90
1766;DHT22;880;52.452;8.656;2024-01-27T13:01:20;11.10;99.90
1766;DHT22;880;52.452;8.656;2024-01-27T13:03:49;11.20;99.90
1766;DHT22;880;52.452;8.656;2024-01-27T13:06:17;11.30;99.90
1766;DHT22;880;52.452;8.656;2024-01-27T13:08:45;11.30;99.90
1766;DHT22;880;52.452;8.656;2024-01-27T13:11:13;11.10;99.90
1766;DHT22;880;52.452;8.656;2024-01-27T13:13:40;11.10;99.90
1766;DHT22;880;52.452;8.656;2024-01-27T13:16:08;10.90;99.90
1766;DHT22;880;52.452;8.656;2024-01-27T13:18:36;11.00;99.90
1766;DHT22;880;52.452;8.656;2024-01-27T13:21:04;11.20;99.90
1766;DHT22;880;52.452;8.656;2024-01-27T13:23:32;11.20;99.90
1766;DHT22;880;52.452;8.656;2024-01-27T13:26:00;11.00;99.90
1766;DHT22;880;52.452;8.656;2024-01-27T13:28:44;10.90;99.90
1766;DHT22;880;52.452;8.656;2024-01-27T13:31:12;10.70;99.90
1766;DHT22;880;52.452;8.656;2024-01-27T13:33:39;10.80;99.90
1766;DHT22;880;52.452;8.656;2024-01-27T13:36:07;11.00;99.90
1766;DHT22;880;52.452;8.656;2024-01-27T13:38:34;11.30;99.90
1766;DHT22;880;52.452;8.656;2024-01-27T13:41:02;11.40;99.90
1766;DHT22;880;52.452;8.656;2024-01-27T13:43:29;11.40;99.90
1766;DHT22;880;52.452;8.656;2024-01-27T13:45:56;11.40;99.90
1766;DHT22;880;52.452;8.656;2024-01-27T13:48:23;11.20;99.90
1766;DHT22;880;52.452;8.656;2024-01-27T13:50:50;11.10;99.90
1766;DHT22;880;52.452;8.656;2024-01-27T13:53:19;10.80;99.90
1766;DHT22;880;52.452;8.656;2024-01-27T13:55:48;10.80;99.90
1766;DHT22;880;52.452;8.656;2024-01-27T13:58:16;10.80;99.90
1766;DHT22;880;52.452;8.656;2024-01-27T14:00:46;10.70;99.90
1766;DHT22;880;52.452;8.656;2024-01-27T14:03:14;10.60;99.90
1766;DHT22;880;52.452;8.656;2024-01-27T14:05:41;10.50;99.90
1766;DHT22;880;52.452;8.656;2024-01-27T14:08:09;10.50;99.90
1766;DHT22;880;52.452;8.656;2024-01-27T14:10:37;10.50;99.90
1766;DHT22;880;52.452;8.656;2024-01-27T14:13:05;10.40;99.90
1766;DHT22;880;52.452;8.656;2024-01-27T14:15:36;10.30;99.90
1766;DHT22;880;52.452;8.656;2024-01-27T14:18:04;10.30;99.90
1766;DHT22;880;52.452;8.656;2024-01-27T14:20:33;10.20;99.90
1766;DHT22;880;52.452;8.656;2024-01-27T14:23:05;10.10;99.90
1766;DHT22;880;52.452;8.656;2024-01-27T14:25:33;10.20;99.90
1766;DHT22;880;52.452;8.656;2024-01-27T14:28:00;10.30;99.90
1766;DHT22;880;52.452;8.656;2024-01-27T14:30:28;10.40;99.90
1766;DHT22;880;52.452;8.656;2024-01-27T14:32:55;10.40;99.90
1766;DHT22;880;52.452;8.656;2024-01-27T14:35:22;10.40;99.90
1766;DHT22;880;52.452;8.656;2024-01-27T14:37:49;10.30;99.90
1766;DHT22;880;52.452;8.656;2024-01-27T14:40:16;10.30;99.90
1766;DHT22;880;52.452;8.656;2024-01-27T14:42:45;10.20;99.90
1766;DHT22;880;52.452;8.656;2024-01-27T14:45:13;10.10;99.90
1766;DHT22;880;52.452;8.656;2024-01-27T14:47:41;10.10;99.90
1766;DHT22;880;52.452;8.656;2024-01-27T14:50:09;10.00;99.90
1766;DHT22;880;52.452;8.656;2024-01-27T14:52:36;10.00;99.90
1766;DHT22;880;52.452;8.656;2024-01-27T14:55:03;10.10;99.90
1766;DHT22;880;52.452;8.656;2024-01-27T14:57:30;10.20;99.90
1766;DHT22;880;52.452;8.656;2024-01-27T14:59:57;10.30;99.90
1766;DHT22;880;52.452;8.656;2024-01-27T15:02:26;10.40;99.90
1766;DHT22;880;52.452;8.656;2024-01-27T15:04:56;10.60;99.90
1766;DHT22;880;52.452;8.656;2024-01-27T15:07:23;10.50;99.90
1766;DHT22;880;52.452;8.656;2024-01-27T15:09:54;10.50;99.90
1766;DHT22;880;52.452;8.656;2024-01-27T15:12:21;10.40;99.90
1766;DHT22;880;52.452;8.656;2024-01-27T15:14:50;10.20;99.90
1766;DHT22;880;52.452;8.656;2024-01-27T15:17:19;10.00;99.90
1766;DHT22;880;52.452;8.656;2024-01-27T15:19:49;9.90;99.90
1766;DHT22;880;52.452;8.656;2024-01-27T15:22:18;9.80;99.90
1766;DHT22;880;52.452;8.656;2024-01-27T15:25:13;9.70;99.90
1766;DHT22;880;52.452;8.656;2024-01-27T15:27:41;9.60;99.90
1766;DHT22;880;52.452;8.656;2024-01-27T15:30:10;9.60;99.90
1766;DHT22;880;52.452;8.656;2024-01-27T15:32:38;9.50;99.90
1766;DHT22;880;52.452;8.656;2024-01-27T15:35:06;9.40;99.90
1766;DHT22;880;52.452;8.656;2024-01-27T15:37:33;9.30;99.90
1766;DHT22;880;52.452;8.656;2024-01-27T15:40:00;9.30;99.90
1766;DHT22;880;52.452;8.656;2024-01-27T15:42:28;9.20;99.90
1766;DHT22;880;52.452;8.656;2024-01-27T15:44:55;9.10;99.90
1766;DHT22;880;52.452;8.656;2024-01-27T15:47:23;9.10;99.90
1766;DHT22;880;52.452;8.656;2024-01-27T15:49:53;9.00;99.90
1766;DHT22;880;52.452;8.656;2024-01-27T15:52:24;9.00;99.90
1766;DHT22;880;52.452;8.656;2024-01-27T15:56:05;8.90;99.90
1766;DHT22;880;52.452;8.656;2024-01-27T15:58:33;8.70;99.90
1766;DHT22;880;52.452;8.656;2024-01-27T16:01:00;8.60;99.90
1766;DHT22;880;52.452;8.656;2024-01-27T16:03:28;8.40;99.90
1766;DHT22;880;52.452;8.656;2024-01-27T16:05:55;8.30;99.90
1766;DHT22;880;52.452;8.656;2024-01-27T16:08:23;8.20;99.90
1766;DHT22;880;52.452;8.656;2024-01-27T16:10:50;8.30;99.90
1766;DHT22;880;52.452;8.656;2024-01-27T16:13:21;8.20;99.90
1766;DHT22;880;52.452;8.656;2024-01-27T16:15:48;8.10;99.90
1766;DHT22;880;52.452;8.656;2024-01-27T16:18:15;8.10;99.90
1766;DHT22;880;52.452;8.656;2024-01-27T16:20:45;8.00;99.90
1766;DHT22;880;52.452;8.656;2024-01-27T16:23:16;8.00;99.90
1766;DHT22;880;52.452;8.656;2024-01-27T16:25:43;7.90;99.90
1766;DHT22;880;52.452;8.656;2024-01-27T16:28:10;7.90;99.90
1766;DHT22;880;52.452;8.656;2024-01-27T16:30:37;7.90;99.90
1766;DHT22;880;52.452;8.656;2024-01-27T16:33:06;7.90;99.90
1766;DHT22;880;52.452;8.656;2024-01-27T16:35:34;7.90;99.90
1766;DHT22;880;52.452;8.656;2024-01-27T16:38:01;7.90;99.90
1766;DHT22;880;52.452;8.656;2024-01-27T16:40:28;8.00;99.90
1766;DHT22;880;52.452;8.656;2024-01-27T16:42:55;7.90;99.90